sensor_id;sensor_type;location;lat;lon;timestamp;pressure;altitude;pressure_sealevel;temperature;humidity
11912;BME280;6016;41.928;25.556;2023-10-08T00:01:42;99333.19;;;17.94;56.99
11912;BME280;6016;41.928;25.556;2023-10-08T00:04:10;99323.34;;;17.94;56.51
11912;BME280;6016;41.928;25.556;2023-10-08T00:06:37;99265.78;;;17.47;55.28
11912;BME280;6016;41.928;25.556;2023-10-08T00:09:04;99292.97;;;17.65;55.77
11912;BME280;6016;41.928;25.556;2023-10-08T00:11:38;99285.03;;;17.57;56.52
11912;BME280;6016;41.928;25.556;2023-10-08T00:14:06;99326.75;;;17.88;56.48
11912;BME280;6016;41.928;25.556;2023-10-08T00:16:36;99327.59;;;17.89;56.10
11912;BME280;6016;41.928;25.556;2023-10-08T00:19:05;99305.19;;;17.75;57.34
11912;BME280;6016;41.928;25.556;2023-10-08T00:21:35;99273.22;;;17.51;56.47
11912;BME280;6016;41.928;25.556;2023-10-08T00:24:03;99286.75;;;17.50;57.48
11912;BME280;6016;41.928;25.556;2023-10-08T00:26:32;99310.53;;;17.75;57.78
11912;BME280;6016;41.928;25.556;2023-10-08T00:29:04;99306.41;;;17.72;57.92
11912;BME280;6016;41.928;25.556;2023-10-08T00:31:41;99305.63;;;17.63;58.49
11912;BME280;6016;41.928;25.556;2023-10-08T00:34:10;99311.81;;;17.64;58.10
11912;BME280;6016;41.928;25.556;2023-10-08T00:36:39;99305.63;;;17.63;56.80
11912;BME280;6016;41.928;25.556;2023-10-08T00:39:07;99301.13;;;17.64;56.63
11912;BME280;6016;41.928;25.556;2023-10-08T00:41:40;99276.97;;;17.42;57.67
11912;BME280;6016;41.928;25.556;2023-10-08T00:44:12;99203.81;;;17.06;56.73
11912;BME280;6016;41.928;25.556;2023-10-08T00:46:42;99200.59;;;17.11;58.34
11912;BME280;6016;41.928;25.556;2023-10-08T00:49:13;99272.16;;;17.61;57.10
11912;BME280;6016;41.928;25.556;2023-10-08T00:51:52;99276.47;;;17.62;58.04
11912;BME280;6016;41.928;25.556;2023-10-08T00:54:50;99277.19;;;17.55;58.05
11912;BME280;6016;41.928;25.556;2023-10-08T00:57:33;99277.19;;;17.55;58.06
11912;BME280;6016;41.928;25.556;2023-10-08T01:00:03;99280.00;;;17.39;58.22
11912;BME280;6016;41.928;25.556;2023-10-08T01:02:40;99280.97;;;17.46;59.06
11912;BME280;6016;41.928;25.556;2023-10-08T01:05:13;98672.41;;;13.57;59.51
11912;BME280;6016;41.928;25.556;2023-10-08T01:07:45;99239.56;;;17.12;59.61
11912;BME280;6016;41.928;25.556;2023-10-08T01:10:14;99278.19;;;17.39;59.28
11912;BME280;6016;41.928;25.556;2023-10-08T01:12:45;99255.50;;;17.20;59.03
11912;BME280;6016;41.928;25.556;2023-10-08T01:15:22;99271.91;;;17.32;59.01
11912;BME280;6016;41.928;25.556;2023-10-08T01:17:54;99271.38;;;17.37;58.70
11912;BME280;6016;41.928;25.556;2023-10-08T01:20:26;99273.38;;;17.35;58.86
11912;BME280;6016;41.928;25.556;2023-10-08T01:23:01;99267.41;;;17.33;58.77
11912;BME280;6016;41.928;25.556;2023-10-08T01:25:36;99262.94;;;17.25;59.34
11912;BME280;6016;41.928;25.556;2023-10-08T01:28:04;99267.94;;;17.28;59.39
11912;BME280;6016;41.928;25.556;2023-10-08T01:30:35;99264.81;;;17.24;58.93
11912;BME280;6016;41.928;25.556;2023-10-08T01:33:06;99268.00;;;17.20;59.98
11912;BME280;6016;41.928;25.556;2023-10-08T01:35:36;99176.31;;;16.59;60.41
11912;BME280;6016;41.928;25.556;2023-10-08T01:38:05;99274.22;;;17.12;60.71
11912;BME280;6016;41.928;25.556;2023-10-08T01:40:39;99257.09;;;16.83;60.24
11912;BME280;6016;41.928;25.556;2023-10-08T01:43:06;99274.28;;;17.04;60.37
11912;BME280;6016;41.928;25.556;2023-10-08T01:45:36;99268.25;;;17.10;59.52
11912;BME280;6016;41.928;25.556;2023-10-08T01:48:06;99271.91;;;17.09;61.24
11912;BME280;6016;41.928;25.556;2023-10-08T01:50:35;99263.13;;;17.00;59.92
11912;BME280;6016;41.928;25.556;2023-10-08T01:53:02;99128.47;;;16.19;60.35
11912;BME280;6016;41.928;25.556;2023-10-08T01:55:32;99259.28;;;17.02;60.14
11912;BME280;6016;41.928;25.556;2023-10-08T01:58:13;99255.13;;;17.00;60.08
11912;BME280;6016;41.928;25.556;2023-10-08T02:00:42;99260.41;;;16.85;60.09
11912;BME280;6016;41.928;25.556;2023-10-08T02:03:11;99269.41;;;16.84;60.78
11912;BME280;6016;41.928;25.556;2023-10-08T02:05:38;99264.41;;;16.81;60.63
11912;BME280;6016;41.928;25.556;2023-10-08T02:08:08;99219.63;;;16.53;60.34
11912;BME280;6016;41.928;25.556;2023-10-08T02:10:37;99262.06;;;16.86;61.45
11912;BME280;6016;41.928;25.556;2023-10-08T02:13:05;99259.06;;;16.81;61.06
11912;BME280;6016;41.928;25.556;2023-10-08T02:15:34;99258.63;;;16.77;60.15
11912;BME280;6016;41.928;25.556;2023-10-08T02:18:02;99252.16;;;16.71;59.50
11912;BME280;6016;41.928;25.556;2023-10-08T02:20:29;99248.47;;;16.72;59.85
11912;BME280;6016;41.928;25.556;2023-10-08T02:22:56;99110.69;;;15.80;61.83
11912;BME280;6016;41.928;25.556;2023-10-08T02:25:25;99217.28;;;16.58;59.37
11912;BME280;6016;41.928;25.556;2023-10-08T02:27:53;99041.97;;;15.60;59.00
11912;BME280;6016;41.928;25.556;2023-10-08T02:30:20;99243.03;;;16.89;59.56
11912;BME280;6016;41.928;25.556;2023-10-08T02:32:46;99174.22;;;16.46;59.83
11912;BME280;6016;41.928;25.556;2023-10-08T02:35:15;99232.00;;;16.92;60.15
11912;BME280;6016;41.928;25.556;2023-10-08T02:37:42;99144.06;;;16.30;59.35
11912;BME280;6016;41.928;25.556;2023-10-08T02:40:11;99235.34;;;16.94;59.94
11912;BME280;6016;41.928;25.556;2023-10-08T02:42:46;99237.53;;;16.91;59.08
11912;BME280;6016;41.928;25.556;2023-10-08T02:45:14;99157.72;;;16.27;58.98
11912;BME280;6016;41.928;25.556;2023-10-08T02:47:42;99236.28;;;16.78;59.92
11912;BME280;6016;41.928;25.556;2023-10-08T02:50:10;99232.78;;;16.78;59.88
11912;BME280;6016;41.928;25.556;2023-10-08T02:52:37;99231.50;;;16.73;59.63
11912;BME280;6016;41.928;25.556;2023-10-08T02:55:05;99231.66;;;16.40;61.22
11912;BME280;6016;41.928;25.556;2023-10-08T02:57:44;99239.34;;;16.67;61.25
11912;BME280;6016;41.928;25.556;2023-10-08T03:00:11;99237.06;;;16.64;59.47
11912;BME280;6016;41.928;25.556;2023-10-08T03:02:41;99219.88;;;16.66;59.85
11912;BME280;6016;41.928;25.556;2023-10-08T03:05:08;99223.13;;;16.77;59.70
11912;BME280;6016;41.928;25.556;2023-10-08T03:07:38;99203.78;;;16.59;59.56
11912;BME280;6016;41.928;25.556;2023-10-08T03:10:06;99202.75;;;16.60;59.79
11912;BME280;6016;41.928;25.556;2023-10-08T03:12:43;99240.44;;;16.49;60.75
11912;BME280;6016;41.928;25.556;2023-10-08T03:15:12;99127.81;;;15.94;60.56
11912;BME280;6016;41.928;25.556;2023-10-08T03:17:54;99228.44;;;16.53;59.89
11912;BME280;6016;41.928;25.556;2023-10-08T03:20:23;99226.31;;;16.49;61.04
11912;BME280;6016;41.928;25.556;2023-10-08T03:23:04;99223.53;;;16.42;59.55
11912;BME280;6016;41.928;25.556;2023-10-08T03:25:37;99226.34;;;16.40;60.80
11912;BME280;6016;41.928;25.556;2023-10-08T03:28:07;99207.44;;;16.27;60.47
11912;BME280;6016;41.928;25.556;2023-10-08T03:30:38;99229.53;;;16.36;61.22
11912;BME280;6016;41.928;25.556;2023-10-08T03:33:16;99211.47;;;16.23;61.70
11912;BME280;6016;41.928;25.556;2023-10-08T03:35:48;99224.56;;;16.33;61.82
11912;BME280;6016;41.928;25.556;2023-10-08T03:38:18;99225.44;;;16.25;61.63
11912;BME280;6016;41.928;25.556;2023-10-08T03:40:48;99054.13;;;15.14;61.07
11912;BME280;6016;41.928;25.556;2023-10-08T03:43:15;99222.09;;;16.31;60.84
11912;BME280;6016;41.928;25.556;2023-10-08T03:45:50;99226.41;;;16.32;60.56
11912;BME280;6016;41.928;25.556;2023-10-08T03:48:21;99223.41;;;16.27;61.23
11912;BME280;6016;41.928;25.556;2023-10-08T03:50:48;99233.19;;;16.35;61.04
11912;BME280;6016;41.928;25.556;2023-10-08T03:53:22;99224.44;;;16.26;60.70
11912;BME280;6016;41.928;25.556;2023-10-08T03:55:50;99212.00;;;16.18;60.87
11912;BME280;6016;41.928;25.556;2023-10-08T03:58:20;99231.53;;;16.34;59.18
11912;BME280;6016;41.928;25.556;2023-10-08T04:00:54;99224.22;;;16.36;60.64
11912;BME280;6016;41.928;25.556;2023-10-08T04:03:35;99203.50;;;16.14;60.51
11912;BME280;6016;41.928;25.556;2023-10-08T04:06:23;99117.19;;;15.37;60.31
11912;BME280;6016;41.928;25.556;2023-10-08T04:08:55;99152.13;;;15.74;60.32
11912;BME280;6016;41.928;25.556;2023-10-08T04:11:30;99224.63;;;16.24;60.10
11912;BME280;6016;41.928;25.556;2023-10-08T04:14:00;99229.44;;;16.21;60.39
11912;BME280;6016;41.928;25.556;2023-10-08T04:16:28;99117.94;;;15.54;59.98
11912;BME280;6016;41.928;25.556;2023-10-08T04:18:56;99230.91;;;16.23;60.28
11912;BME280;6016;41.928;25.556;2023-10-08T04:21:28;99231.28;;;16.20;59.72
11912;BME280;6016;41.928;25.556;2023-10-08T04:23:59;99223.81;;;16.15;59.03
11912;BME280;6016;41.928;25.556;2023-10-08T04:26:28;99223.00;;;16.15;60.14
11912;BME280;6016;41.928;25.556;2023-10-08T04:28:57;99170.88;;;15.81;59.96
11912;BME280;6016;41.928;25.556;2023-10-08T04:31:27;99178.84;;;15.81;58.90
11912;BME280;6016;41.928;25.556;2023-10-08T04:34:04;99227.31;;;16.16;59.89
11912;BME280;6016;41.928;25.556;2023-10-08T04:36:35;99154.94;;;15.72;59.99
11912;BME280;6016;41.928;25.556;2023-10-08T04:39:03;99181.66;;;15.87;59.98
11912;BME280;6016;41.928;25.556;2023-10-08T04:41:39;99219.34;;;16.08;58.98
11912;BME280;6016;41.928;25.556;2023-10-08T04:44:08;99218.34;;;16.09;60.19
11912;BME280;6016;41.928;25.556;2023-10-08T04:46:40;99218.19;;;16.10;60.29
11912;BME280;6016;41.928;25.556;2023-10-08T04:49:15;99206.25;;;15.98;58.31
11912;BME280;6016;41.928;25.556;2023-10-08T04:51:54;99232.78;;;16.14;59.26
11912;BME280;6016;41.928;25.556;2023-10-08T04:54:23;99228.59;;;16.20;59.86
11912;BME280;6016;41.928;25.556;2023-10-08T04:56:56;99241.75;;;16.22;58.76
11912;BME280;6016;41.928;25.556;2023-10-08T04:59:24;99105.72;;;15.37;58.68
11912;BME280;6016;41.928;25.556;2023-10-08T05:01:58;99233.00;;;16.05;60.31
11912;BME280;6016;41.928;25.556;2023-10-08T05:04:46;99156.16;;;15.61;59.28
11912;BME280;6016;41.928;25.556;2023-10-08T05:07:22;99187.31;;;15.84;59.05
11912;BME280;6016;41.928;25.556;2023-10-08T05:10:22;99222.38;;;15.96;59.33
11912;BME280;6016;41.928;25.556;2023-10-08T05:13:10;99207.91;;;15.99;60.53
11912;BME280;6016;41.928;25.556;2023-10-08T05:15:42;99227.47;;;16.14;59.84
11912;BME280;6016;41.928;25.556;2023-10-08T05:18:28;99227.44;;;16.23;59.12
11912;BME280;6016;41.928;25.556;2023-10-08T05:21:17;99152.91;;;15.83;59.79
11912;BME280;6016;41.928;25.556;2023-10-08T05:23:51;99229.19;;;16.39;59.46
11912;BME280;6016;41.928;25.556;2023-10-08T05:26:37;99227.69;;;16.44;59.24
11912;BME280;6016;41.928;25.556;2023-10-08T05:29:08;99180.06;;;16.18;58.99
11912;BME280;6016;41.928;25.556;2023-10-08T05:31:49;99230.41;;;16.59;58.31
11912;BME280;6016;41.928;25.556;2023-10-08T05:34:35;99225.03;;;16.68;57.44
11912;BME280;6016;41.928;25.556;2023-10-08T05:37:09;99231.97;;;16.77;58.75
11912;BME280;6016;41.928;25.556;2023-10-08T05:39:59;99229.97;;;16.79;58.15
11912;BME280;6016;41.928;25.556;2023-10-08T05:42:45;99231.09;;;16.85;58.31
11912;BME280;6016;41.928;25.556;2023-10-08T05:45:15;99213.13;;;16.79;58.60
11912;BME280;6016;41.928;25.556;2023-10-08T05:47:55;99241.97;;;16.98;58.03
11912;BME280;6016;41.928;25.556;2023-10-08T05:50:39;99236.63;;;17.07;57.90
11912;BME280;6016;41.928;25.556;2023-10-08T05:53:09;99233.06;;;17.14;57.57
11912;BME280;6016;41.928;25.556;2023-10-08T05:55:55;99234.63;;;17.24;57.25
11912;BME280;6016;41.928;25.556;2023-10-08T05:58:41;99182.41;;;16.91;57.67
11912;BME280;6016;41.928;25.556;2023-10-08T06:01:25;99233.66;;;17.40;58.28
11912;BME280;6016;41.928;25.556;2023-10-08T06:04:05;99244.25;;;17.48;57.77
11912;BME280;6016;41.928;25.556;2023-10-08T06:06:46;99233.69;;;17.55;58.23
11912;BME280;6016;41.928;25.556;2023-10-08T06:09:24;99231.78;;;17.64;58.48
11912;BME280;6016;41.928;25.556;2023-10-08T06:12:00;99110.44;;;17.14;57.41
11912;BME280;6016;41.928;25.556;2023-10-08T06:14:36;99224.53;;;18.54;55.93
11912;BME280;6016;41.928;25.556;2023-10-08T06:17:19;99204.00;;;18.55;55.55
11912;BME280;6016;41.928;25.556;2023-10-08T06:20:01;99193.38;;;18.40;55.42
11912;BME280;6016;41.928;25.556;2023-10-08T06:22:35;99180.78;;;18.55;55.20
11912;BME280;6016;41.928;25.556;2023-10-08T06:25:02;99229.47;;;19.66;53.03
11912;BME280;6016;41.928;25.556;2023-10-08T06:27:43;99221.63;;;20.42;51.00
11912;BME280;6016;41.928;25.556;2023-10-08T06:30:11;99219.88;;;21.03;48.12
11912;BME280;6016;41.928;25.556;2023-10-08T06:32:43;99221.91;;;21.82;46.47
11912;BME280;6016;41.928;25.556;2023-10-08T06:35:11;99219.63;;;21.86;46.05
11912;BME280;6016;41.928;25.556;2023-10-08T06:37:43;99213.69;;;21.43;46.90
11912;BME280;6016;41.928;25.556;2023-10-08T06:40:12;99212.66;;;21.11;49.24
11912;BME280;6016;41.928;25.556;2023-10-08T06:43:00;99217.78;;;20.85;49.71
11912;BME280;6016;41.928;25.556;2023-10-08T06:45:37;99210.19;;;20.89;50.14
11912;BME280;6016;41.928;25.556;2023-10-08T06:48:05;99209.38;;;21.35;47.19
11912;BME280;6016;41.928;25.556;2023-10-08T06:50:34;99194.50;;;21.40;46.98
11912;BME280;6016;41.928;25.556;2023-10-08T06:53:01;99208.53;;;21.42;45.59
11912;BME280;6016;41.928;25.556;2023-10-08T06:55:34;99167.69;;;20.92;44.82
11912;BME280;6016;41.928;25.556;2023-10-08T06:58:02;99142.28;;;20.68;46.84
11912;BME280;6016;41.928;25.556;2023-10-08T07:00:34;99152.78;;;20.76;46.61
11912;BME280;6016;41.928;25.556;2023-10-08T07:03:12;99200.28;;;21.10;45.87
11912;BME280;6016;41.928;25.556;2023-10-08T07:05:41;99163.97;;;20.87;42.50
11912;BME280;6016;41.928;25.556;2023-10-08T07:08:10;99201.09;;;21.10;43.86
11912;BME280;6016;41.928;25.556;2023-10-08T07:10:40;99134.63;;;20.72;44.54
11912;BME280;6016;41.928;25.556;2023-10-08T07:13:10;99152.84;;;20.90;45.44
11912;BME280;6016;41.928;25.556;2023-10-08T07:15:38;99207.91;;;21.26;43.79
11912;BME280;6016;41.928;25.556;2023-10-08T07:18:06;99127.88;;;20.83;44.66
11912;BME280;6016;41.928;25.556;2023-10-08T07:20:40;99143.94;;;21.23;45.89
11912;BME280;6016;41.928;25.556;2023-10-08T07:23:08;99188.06;;;21.74;43.61
11912;BME280;6016;41.928;25.556;2023-10-08T07:25:55;99184.06;;;21.90;45.03
11912;BME280;6016;41.928;25.556;2023-10-08T07:28:27;99178.81;;;22.16;44.94
11912;BME280;6016;41.928;25.556;2023-10-08T07:30:55;99152.47;;;21.86;43.40
11912;BME280;6016;41.928;25.556;2023-10-08T07:33:23;99188.75;;;22.09;42.79
11912;BME280;6016;41.928;25.556;2023-10-08T07:35:54;99171.06;;;21.87;41.42
11912;BME280;6016;41.928;25.556;2023-10-08T07:38:29;99185.19;;;22.22;40.21
11912;BME280;6016;41.928;25.556;2023-10-08T07:40:58;99187.59;;;22.37;43.26
11912;BME280;6016;41.928;25.556;2023-10-08T07:43:26;99075.59;;;21.91;41.16
11912;BME280;6016;41.928;25.556;2023-10-08T07:45:57;99117.34;;;22.33;37.99
11912;BME280;6016;41.928;25.556;2023-10-08T07:48:25;99180.38;;;23.01;40.50
11912;BME280;6016;41.928;25.556;2023-10-08T07:50:55;99150.06;;;23.13;38.42
11912;BME280;6016;41.928;25.556;2023-10-08T07:53:22;99167.19;;;23.63;35.83
11912;BME280;6016;41.928;25.556;2023-10-08T07:55:50;99169.03;;;23.99;37.00
11912;BME280;6016;41.928;25.556;2023-10-08T07:58:18;99168.31;;;24.11;35.41
11912;BME280;6016;41.928;25.556;2023-10-08T08:00:45;99164.81;;;24.10;38.48
11912;BME280;6016;41.928;25.556;2023-10-08T08:03:21;99171.09;;;24.04;37.46
11912;BME280;6016;41.928;25.556;2023-10-08T08:05:48;99161.78;;;24.00;37.08
11912;BME280;6016;41.928;25.556;2023-10-08T08:08:19;99156.16;;;24.01;39.47
11912;BME280;6016;41.928;25.556;2023-10-08T08:10:49;99151.47;;;23.97;37.55
11912;BME280;6016;41.928;25.556;2023-10-08T08:13:24;99158.06;;;23.82;38.13
11912;BME280;6016;41.928;25.556;2023-10-08T08:15:54;99156.41;;;23.81;38.31
11912;BME280;6016;41.928;25.556;2023-10-08T08:18:25;99146.38;;;23.88;39.38
11912;BME280;6016;41.928;25.556;2023-10-08T08:20:59;99014.75;;;23.05;34.88
11912;BME280;6016;41.928;25.556;2023-10-08T08:23:28;99141.44;;;24.04;37.90
11912;BME280;6016;41.928;25.556;2023-10-08T08:25:55;99049.59;;;23.56;37.87
11912;BME280;6016;41.928;25.556;2023-10-08T08:28:39;99112.53;;;23.93;35.39
11912;BME280;6016;41.928;25.556;2023-10-08T08:31:07;99140.22;;;24.00;37.68
11912;BME280;6016;41.928;25.556;2023-10-08T08:33:42;99138.00;;;23.97;34.58
11912;BME280;6016;41.928;25.556;2023-10-08T08:36:26;99130.81;;;23.91;33.04
11912;BME280;6016;41.928;25.556;2023-10-08T08:38:54;99057.84;;;23.43;33.57
11912;BME280;6016;41.928;25.556;2023-10-08T08:41:22;99122.25;;;23.94;35.03
11912;BME280;6016;41.928;25.556;2023-10-08T08:43:51;99090.94;;;23.62;33.78
11912;BME280;6016;41.928;25.556;2023-10-08T08:46:29;99122.19;;;24.00;32.79
11912;BME280;6016;41.928;25.556;2023-10-08T08:49:00;98847.75;;;22.32;33.67
11912;BME280;6016;41.928;25.556;2023-10-08T08:51:29;99074.41;;;23.77;32.57
11912;BME280;6016;41.928;25.556;2023-10-08T08:53:56;99107.06;;;23.99;34.79
11912;BME280;6016;41.928;25.556;2023-10-08T08:56:26;99103.72;;;24.04;34.87
11912;BME280;6016;41.928;25.556;2023-10-08T08:58:59;99099.44;;;24.15;34.60
11912;BME280;6016;41.928;25.556;2023-10-08T09:01:26;99097.09;;;24.19;32.64
11912;BME280;6016;41.928;25.556;2023-10-08T09:03:58;99009.03;;;23.70;33.84
11912;BME280;6016;41.928;25.556;2023-10-08T09:06:26;98943.59;;;23.39;33.01
11912;BME280;6016;41.928;25.556;2023-10-08T09:08:53;99086.94;;;24.33;32.60
11912;BME280;6016;41.928;25.556;2023-10-08T09:11:21;99053.38;;;24.16;33.87
11912;BME280;6016;41.928;25.556;2023-10-08T09:13:54;98983.31;;;23.86;33.44
11912;BME280;6016;41.928;25.556;2023-10-08T09:16:23;99074.78;;;24.54;33.66
11912;BME280;6016;41.928;25.556;2023-10-08T09:18:50;98986.34;;;24.08;36.51
11912;BME280;6016;41.928;25.556;2023-10-08T09:21:19;98820.69;;;23.02;32.40
11912;BME280;6016;41.928;25.556;2023-10-08T09:23:50;98759.34;;;22.61;32.55
11912;BME280;6016;41.928;25.556;2023-10-08T09:26:17;99052.41;;;24.65;31.71
11912;BME280;6016;41.928;25.556;2023-10-08T09:28:46;99061.53;;;24.64;31.26
11912;BME280;6016;41.928;25.556;2023-10-08T09:31:14;98991.84;;;24.25;30.99
11912;BME280;6016;41.928;25.556;2023-10-08T09:33:53;99003.84;;;24.41;30.43
11912;BME280;6016;41.928;25.556;2023-10-08T09:36:21;99048.44;;;24.80;31.78
11912;BME280;6016;41.928;25.556;2023-10-08T09:38:58;99027.44;;;24.82;31.33
11912;BME280;6016;41.928;25.556;2023-10-08T09:43:54;99009.75;;;24.86;31.02
11912;BME280;6016;41.928;25.556;2023-10-08T09:46:27;99038.09;;;25.12;31.21
11912;BME280;6016;41.928;25.556;2023-10-08T09:48:59;99034.53;;;25.24;30.85
11912;BME280;6016;41.928;25.556;2023-10-08T09:51:28;99033.13;;;25.33;30.44
11912;BME280;6016;41.928;25.556;2023-10-08T09:54:02;99029.00;;;25.42;29.64
11912;BME280;6016;41.928;25.556;2023-10-08T09:56:36;98966.25;;;25.23;30.94
11912;BME280;6016;41.928;25.556;2023-10-08T09:59:04;98796.75;;;24.14;31.11
11912;BME280;6016;41.928;25.556;2023-10-08T10:01:33;98853.75;;;24.59;30.88
11912;BME280;6016;41.928;25.556;2023-10-08T10:04:05;99011.06;;;25.65;31.76
11912;BME280;6016;41.928;25.556;2023-10-08T10:06:33;99016.72;;;25.64;29.70
11912;BME280;6016;41.928;25.556;2023-10-08T10:09:01;99008.63;;;25.64;30.28
11912;BME280;6016;41.928;25.556;2023-10-08T10:11:32;99004.13;;;25.69;29.80
11912;BME280;6016;41.928;25.556;2023-10-08T10:14:00;98990.78;;;25.63;30.47
11912;BME280;6016;41.928;25.556;2023-10-08T10:16:27;98995.63;;;25.78;31.14
11912;BME280;6016;41.928;25.556;2023-10-08T10:18:55;98991.41;;;25.82;31.28
11912;BME280;6016;41.928;25.556;2023-10-08T10:21:32;98992.19;;;25.82;30.57
11912;BME280;6016;41.928;25.556;2023-10-08T10:24:00;98926.75;;;25.34;30.38
11912;BME280;6016;41.928;25.556;2023-10-08T10:26:32;98997.03;;;25.80;31.41
11912;BME280;6016;41.928;25.556;2023-10-08T10:29:19;98949.97;;;25.47;29.40
11912;BME280;6016;41.928;25.556;2023-10-08T10:31:46;98878.47;;;25.09;31.73
11912;BME280;6016;41.928;25.556;2023-10-08T10:34:17;98916.03;;;25.39;30.35
11912;BME280;6016;41.928;25.556;2023-10-08T10:36:48;98982.06;;;25.90;31.36
11912;BME280;6016;41.928;25.556;2023-10-08T10:39:16;98983.78;;;25.96;30.85
11912;BME280;6016;41.928;25.556;2023-10-08T10:41:52;98865.28;;;25.24;30.92
11912;BME280;6016;41.928;25.556;2023-10-08T10:44:23;98968.72;;;26.00;30.57
11912;BME280;6016;41.928;25.556;2023-10-08T10:46:49;98950.19;;;25.92;30.11
11912;BME280;6016;41.928;25.556;2023-10-08T10:49:17;98963.72;;;26.09;29.83
11912;BME280;6016;41.928;25.556;2023-10-08T10:51:49;98922.59;;;25.90;31.75
11912;BME280;6016;41.928;25.556;2023-10-08T10:54:22;98893.94;;;25.72;31.51
11912;BME280;6016;41.928;25.556;2023-10-08T10:56:50;98929.81;;;26.01;30.59
11912;BME280;6016;41.928;25.556;2023-10-08T10:59:29;98960.63;;;26.17;29.93
11912;BME280;6016;41.928;25.556;2023-10-08T11:02:02;98895.56;;;25.90;30.40
11912;BME280;6016;41.928;25.556;2023-10-08T11:04:34;98786.09;;;25.36;30.95
11912;BME280;6016;41.928;25.556;2023-10-08T11:07:15;98928.44;;;26.33;29.66
11912;BME280;6016;41.928;25.556;2023-10-08T11:09:43;98936.88;;;26.36;31.07
11912;BME280;6016;41.928;25.556;2023-10-08T11:12:13;98870.25;;;25.96;30.62
11912;BME280;6016;41.928;25.556;2023-10-08T11:14:46;98343.47;;;22.62;31.71
11912;BME280;6016;41.928;25.556;2023-10-08T11:17:13;98822.69;;;25.78;29.93
11912;BME280;6016;41.928;25.556;2023-10-08T11:19:41;98915.69;;;26.50;30.98
11912;BME280;6016;41.928;25.556;2023-10-08T11:22:11;98919.47;;;26.49;30.86
11912;BME280;6016;41.928;25.556;2023-10-08T11:24:43;98917.25;;;26.46;30.75
11912;BME280;6016;41.928;25.556;2023-10-08T11:27:16;98846.91;;;26.07;29.88
11912;BME280;6016;41.928;25.556;2023-10-08T11:29:44;98904.81;;;26.45;31.29
11912;BME280;6016;41.928;25.556;2023-10-08T11:32:12;98824.81;;;25.93;31.95
11912;BME280;6016;41.928;25.556;2023-10-08T11:34:41;98903.38;;;26.60;30.71
11912;BME280;6016;41.928;25.556;2023-10-08T11:37:08;98893.28;;;26.55;30.63
11912;BME280;6016;41.928;25.556;2023-10-08T11:39:47;98896.75;;;26.73;30.38
11912;BME280;6016;41.928;25.556;2023-10-08T11:42:14;98834.09;;;26.36;30.56
11912;BME280;6016;41.928;25.556;2023-10-08T11:44:59;98884.63;;;26.75;30.28
11912;BME280;6016;41.928;25.556;2023-10-08T11:47:43;98811.63;;;26.36;30.29
11912;BME280;6016;41.928;25.556;2023-10-08T11:50:11;98851.72;;;26.61;30.52
11912;BME280;6016;41.928;25.556;2023-10-08T11:52:42;98705.69;;;25.77;31.49
11912;BME280;6016;41.928;25.556;2023-10-08T11:55:11;98863.44;;;26.89;29.86
11912;BME280;6016;41.928;25.556;2023-10-08T11:57:44;98810.81;;;26.58;31.10
11912;BME280;6016;41.928;25.556;2023-10-08T12:00:14;98803.56;;;26.63;29.87
11912;BME280;6016;41.928;25.556;2023-10-08T12:02:45;98848.19;;;27.05;30.19
11912;BME280;6016;41.928;25.556;2023-10-08T12:05:12;98792.03;;;26.73;32.31
11912;BME280;6016;41.928;25.556;2023-10-08T12:07:46;98787.50;;;26.79;30.40
11912;BME280;6016;41.928;25.556;2023-10-08T12:10:15;98771.66;;;26.65;31.08
11912;BME280;6016;41.928;25.556;2023-10-08T12:12:48;98800.69;;;26.98;29.86
11912;BME280;6016;41.928;25.556;2023-10-08T12:15:15;98784.25;;;27.04;30.36
11912;BME280;6016;41.928;25.556;2023-10-08T12:17:48;98843.22;;;27.24;30.35
11912;BME280;6016;41.928;25.556;2023-10-08T12:20:35;98824.66;;;27.11;32.63
11912;BME280;6016;41.928;25.556;2023-10-08T12:23:03;98768.09;;;26.60;31.02
11912;BME280;6016;41.928;25.556;2023-10-08T12:25:31;98821.59;;;27.02;31.63
11912;BME280;6016;41.928;25.556;2023-10-08T12:27:59;98678.84;;;26.15;31.42
11912;BME280;6016;41.928;25.556;2023-10-08T12:30:30;98629.09;;;25.89;31.14
11912;BME280;6016;41.928;25.556;2023-10-08T12:33:06;98807.09;;;27.14;31.04
11912;BME280;6016;41.928;25.556;2023-10-08T12:35:38;98793.53;;;27.14;30.44
11912;BME280;6016;41.928;25.556;2023-10-08T12:38:05;98704.16;;;26.53;31.46
11912;BME280;6016;41.928;25.556;2023-10-08T12:40:33;98767.66;;;26.95;30.67
11912;BME280;6016;41.928;25.556;2023-10-08T12:43:08;98794.38;;;27.14;31.71
11912;BME280;6016;41.928;25.556;2023-10-08T12:45:35;98784.53;;;27.03;31.30
11912;BME280;6016;41.928;25.556;2023-10-08T12:48:03;98791.88;;;27.07;31.35
11912;BME280;6016;41.928;25.556;2023-10-08T12:50:33;98793.81;;;27.12;32.09
11912;BME280;6016;41.928;25.556;2023-10-08T12:53:08;98803.50;;;27.08;32.44
11912;BME280;6016;41.928;25.556;2023-10-08T12:55:38;98791.00;;;27.02;32.49
11912;BME280;6016;41.928;25.556;2023-10-08T12:58:06;98796.38;;;26.96;31.76
11912;BME280;6016;41.928;25.556;2023-10-08T13:00:35;98777.91;;;26.88;31.75
11912;BME280;6016;41.928;25.556;2023-10-08T13:03:06;98792.72;;;26.86;31.07
11912;BME280;6016;41.928;25.556;2023-10-08T13:05:40;98781.28;;;27.06;31.10
11912;BME280;6016;41.928;25.556;2023-10-08T13:08:09;98783.47;;;27.09;31.30
11912;BME280;6016;41.928;25.556;2023-10-08T13:10:40;98793.50;;;27.08;31.45
11912;BME280;6016;41.928;25.556;2023-10-08T13:13:09;98748.13;;;26.88;30.94
11912;BME280;6016;41.928;25.556;2023-10-08T13:15:37;98779.34;;;27.01;30.69
11912;BME280;6016;41.928;25.556;2023-10-08T13:18:04;98643.69;;;26.15;30.62
11912;BME280;6016;41.928;25.556;2023-10-08T13:20:32;98790.75;;;27.03;30.49
11912;BME280;6016;41.928;25.556;2023-10-08T13:22:59;98761.06;;;26.86;31.12
11912;BME280;6016;41.928;25.556;2023-10-08T13:25:26;98722.06;;;26.54;32.64
11912;BME280;6016;41.928;25.556;2023-10-08T13:27:57;98689.09;;;26.35;32.41